Time;durP1;ratioP1;P1;durP2;ratioP2;P2;SDS_P1;SDS_P2;PMS_P1;PMS_P2;Temp;Humidity;BMP_temperature;BMP_pressure;BME280_temperature;BME280_humidity;BME280_pressure;Samples;Min_cycle;Max_cycle;Signal;HPM_P1;HPM_P2
2022/06/09 00:01:18;;;;;;;18.00;11.15;;;16.70;99.90;;;;;;5143859;27;20054;-56
2022/06/09 00:03:50;;;;;;;15.35;12.20;;;16.70;99.90;;;;;;5143573;27;20026;-56
2022/06/09 00:06:16;;;;;;;15.77;11.43;;;16.70;99.90;;;;;;5142252;27;20038;-56
2022/06/09 00:08:47;;;;;;;17.60;12.43;;;16.70;99.90;;;;;;5143919;27;20019;-56
2022/06/09 00:11:18;;;;;;;14.90;11.35;;;16.70;99.90;;;;;;5155918;27;20018;-56
2022/06/09 00:13:45;;;;;;;18.80;12.65;;;16.50;99.90;;;;;;5153601;27;20066;-55
2022/06/09 00:16:12;;;;;;;19.77;12.87;;;16.60;99.90;;;;;;5151974;27;20380;-56
2022/06/09 00:18:38;;;;;;;16.83;12.30;;;16.60;99.90;;;;;;5142262;27;20283;-56
2022/06/09 00:21:03;;;;;;;17.05;13.07;;;16.60;99.90;;;;;;5143326;27;20023;-56
2022/06/09 00:23:29;;;;;;;13.82;11.15;;;16.50;99.90;;;;;;5123034;27;20542;-55
2022/06/09 00:25:55;;;;;;;16.45;11.40;;;16.50;99.90;;;;;;5132711;27;20027;-56
2022/06/09 00:28:21;;;;;;;13.77;10.68;;;16.50;99.90;;;;;;5133103;27;20026;-56
2022/06/09 00:30:46;;;;;;;12.07;10.02;;;16.50;99.90;;;;;;5133001;27;20035;-56
2022/06/09 00:33:13;;;;;;;13.70;10.80;;;16.50;99.90;;;;;;5132831;27;20041;-56
2022/06/09 00:35:39;;;;;;;14.00;9.23;;;16.50;99.90;;;;;;5132914;27;20080;-56
2022/06/09 00:38:05;;;;;;;16.80;10.55;;;16.50;99.90;;;;;;5133053;27;20035;-56
2022/06/09 00:40:32;;;;;;;13.63;10.55;;;16.40;99.90;;;;;;5132941;27;20456;-55
2022/06/09 00:43:02;;;;;;;18.23;12.30;;;16.40;99.90;;;;;;5132731;27;20400;-56
2022/06/09 00:45:37;;;;;;;19.73;13.45;;;16.40;99.90;;;;;;5132772;27;20462;-56
2022/06/09 00:48:21;;;;;;;19.20;14.23;;;16.40;99.90;;;;;;5132495;27;20027;-56
2022/06/09 00:50:55;;;;;;;22.58;16.52;;;16.40;99.90;;;;;;5132659;27;20073;-56
2022/06/09 00:53:26;;;;;;;20.95;16.60;;;16.50;99.90;;;;;;5132362;27;20044;-56
2022/06/09 00:55:52;;;;;;;29.40;19.75;;;16.50;99.90;;;;;;5132832;27;20042;-56
2022/06/09 00:58:22;;;;;;;29.42;18.90;;;16.40;99.90;;;;;;5131710;27;20016;-56
2022/06/09 01:00:55;;;;;;;23.35;18.90;;;16.40;99.90;;;;;;5132240;27;20080;-56
2022/06/09 01:03:25;;;;;;;25.90;20.10;;;16.50;99.90;;;;;;5132206;27;20019;-56
2022/06/09 01:05:57;;;;;;;24.77;18.70;;;16.60;99.90;;;;;;5132421;27;20035;-56
2022/06/09 01:08:22;;;;;;;26.50;20.17;;;16.60;99.90;;;;;;5132345;27;20076;-56
2022/06/09 01:10:48;;;;;;;26.75;19.45;;;16.70;99.90;;;;;;5132164;27;20023;-56
2022/06/09 01:13:14;;;;;;;28.08;20.45;;;16.60;99.90;;;;;;5131969;27;20028;-56
2022/06/09 01:15:55;;;;;;;26.65;19.10;;;16.60;99.90;;;;;;5132120;27;20027;-56
2022/06/09 01:18:40;;;;;;;26.90;20.65;;;16.60;99.90;;;;;;5132295;27;20048;-56
2022/06/09 01:21:21;;;;;;;27.17;20.23;;;16.60;99.90;;;;;;5132338;27;20027;-56
2022/06/09 01:24:12;;;;;;;28.75;20.27;;;16.60;99.90;;;;;;5131968;27;20019;-56
2022/06/09 01:26:50;;;;;;;24.17;19.08;;;16.70;99.90;;;;;;5132127;27;20190;-56
2022/06/09 01:29:30;;;;;;;25.40;19.17;;;16.70;99.90;;;;;;5131979;27;20030;-56
2022/06/09 01:32:23;;;;;;;28.05;20.20;;;16.70;99.90;;;;;;5131731;27;20031;-56
2022/06/09 01:34:55;;;;;;;25.83;19.90;;;16.70;99.90;;;;;;5122972;27;20432;-56
2022/06/09 01:37:43;;;;;;;26.10;20.17;;;16.70;99.90;;;;;;5131697;27;20466;-56
2022/06/09 01:40:15;;;;;;;25.08;20.73;;;16.60;99.90;;;;;;5131039;27;20382;-56
2022/06/09 01:42:55;;;;;;;28.90;20.75;;;16.50;99.90;;;;;;5131621;27;20043;-56
2022/06/09 01:45:57;;;;;;;36.67;22.67;;;16.50;99.90;;;;;;5131521;27;20027;-56
2022/06/09 01:48:24;;;;;;;34.97;22.42;;;16.40;99.90;;;;;;5131318;27;20508;-56
2022/06/09 01:50:55;;;;;;;;;;;16.40;99.90;;;;;;5131750;27;20062;-56
2022/06/09 01:53:30;;;;;;;31.98;21.92;;;16.40;99.90;;;;;;5131068;27;19950;-56
2022/06/09 01:56:01;;;;;;;31.02;21.90;;;16.40;99.90;;;;;;5131563;27;20038;-56
2022/06/09 01:58:34;;;;;;;33.10;22.58;;;16.40;99.90;;;;;;5131462;27;20929;-56
2022/06/09 02:01:02;;;;;;;37.75;24.52;;;16.30;99.90;;;;;;5131302;27;20494;-56
2022/06/09 02:03:33;;;;;;;33.03;23.13;;;16.40;99.90;;;;;;5131203;27;20422;-56
2022/06/09 02:06:01;;;;;;;35.28;23.70;;;16.30;99.90;;;;;;5131213;27;20478;-56
2022/06/09 02:08:29;;;;;;;34.15;23.80;;;16.40;99.90;;;;;;5131600;27;20031;-56
2022/06/09 02:11:00;;;;;;;36.08;23.83;;;16.40;99.90;;;;;;5130605;27;20031;-56
2022/06/09 02:13:39;;;;;;;35.25;24.85;;;16.40;99.90;;;;;;5131093;27;20043;-56
2022/06/09 02:16:08;;;;;;;31.10;22.08;;;16.40;99.90;;;;;;5130985;27;20487;-56
2022/06/09 02:18:40;;;;;;;30.65;22.92;;;16.40;99.90;;;;;;5131241;27;20031;-55
2022/06/09 02:21:35;;;;;;;27.05;19.98;;;16.40;99.90;;;;;;5131166;27;20023;-56
2022/06/09 02:24:01;;;;;;;30.88;20.58;;;16.40;99.90;;;;;;5130539;27;20035;-56
2022/06/09 02:26:27;;;;;;;28.77;18.33;;;16.50;99.90;;;;;;5151197;27;20031;-56
2022/06/09 02:28:53;;;;;;;26.00;18.30;;;16.50;99.90;;;;;;5151900;27;20015;-55
2022/06/09 02:31:21;;;;;;;24.05;18.10;;;16.40;99.90;;;;;;5151767;27;20023;-56
2022/06/09 02:33:48;;;;;;;26.50;19.60;;;16.40;99.90;;;;;;5151597;27;20035;-56
2022/06/09 02:36:14;;;;;;;26.33;18.40;;;16.40;99.90;;;;;;5151548;27;20023;-56
2022/06/09 02:38:40;;;;;;;25.20;19.20;;;16.40;99.90;;;;;;5151753;27;20034;-56
2022/06/09 02:41:06;;;;;;;24.15;17.25;;;16.40;99.90;;;;;;5151159;27;20486;-56
2022/06/09 02:43:32;;;;;;;29.30;19.33;;;16.40;99.90;;;;;;5151614;27;20465;-56
2022/06/09 02:45:59;;;;;;;28.10;20.25;;;16.40;99.90;;;;;;5151639;27;20023;-56
2022/06/09 02:48:25;;;;;;;28.63;20.20;;;16.40;99.90;;;;;;5151393;27;20608;-56
2022/06/09 02:50:52;;;;;;;31.20;21.77;;;16.40;99.90;;;;;;5151274;27;20117;-56
2022/06/09 02:53:18;;;;;;;27.17;20.63;;;16.40;99.90;;;;;;5151032;27;20055;-56
2022/06/09 02:55:44;;;;;;;32.80;22.48;;;16.50;99.90;;;;;;5151033;27;20023;-56
2022/06/09 02:58:10;;;;;;;28.90;21.25;;;16.50;99.90;;;;;;5151456;27;20150;-56
2022/06/09 03:00:36;;;;;;;27.33;19.63;;;16.50;99.90;;;;;;5151454;27;20346;-56
2022/06/09 03:03:06;;;;;;;30.07;19.77;;;16.50;99.90;;;;;;5151115;27;20014;-56
2022/06/09 03:05:35;;;;;;;28.27;19.20;;;16.50;99.90;;;;;;5151334;27;20041;-56
2022/06/09 03:08:02;;;;;;;29.65;20.27;;;16.50;99.90;;;;;;5151159;27;20019;-56
2022/06/09 03:10:28;;;;;;;29.60;20.25;;;16.60;99.90;;;;;;5150988;27;20858;-56
2022/06/09 03:12:54;;;;;;;26.17;19.33;;;16.60;99.90;;;;;;5151307;27;20389;-56
2022/06/09 03:15:22;;;;;;;29.10;20.15;;;16.60;99.90;;;;;;5151091;27;20485;-56
2022/06/09 03:17:49;;;;;;;30.95;21.08;;;16.50;99.90;;;;;;5151011;27;20030;-56
2022/06/09 03:20:18;;;;;;;28.83;20.00;;;16.60;99.90;;;;;;5132487;27;20031;-56
2022/06/09 03:22:44;;;;;;;30.67;20.98;;;16.60;99.90;;;;;;5149526;27;20030;-56
2022/06/09 03:25:10;;;;;;;29.90;20.05;;;16.60;99.90;;;;;;5134248;27;20023;-57
2022/06/09 03:27:36;;;;;;;25.08;19.10;;;16.60;99.90;;;;;;5134618;27;20011;-57
2022/06/09 03:30:03;;;;;;;31.65;19.95;;;16.60;99.90;;;;;;5134401;27;20033;-58
2022/06/09 03:32:29;;;;;;;27.98;20.05;;;16.60;99.90;;;;;;5133991;27;20030;-58
2022/06/09 03:34:55;;;;;;;24.65;18.15;;;16.70;99.90;;;;;;5134055;27;20043;-58
2022/06/09 03:37:22;;;;;;;24.88;19.13;;;16.60;99.90;;;;;;5133992;27;20419;-58
2022/06/09 03:39:48;;;;;;;23.73;17.65;;;16.70;99.90;;;;;;5134059;27;20107;-57
2022/06/09 03:42:14;;;;;;;28.67;18.67;;;16.70;99.90;;;;;;5133819;27;20020;-58
2022/06/09 03:44:40;;;;;;;25.85;18.30;;;16.60;99.90;;;;;;5134133;27;20034;-57
2022/06/09 03:47:07;;;;;;;25.98;17.42;;;16.70;99.90;;;;;;5133781;27;20875;-58
2022/06/09 03:49:32;;;;;;;26.73;19.48;;;16.80;99.90;;;;;;5133760;27;20053;-57
2022/06/09 03:51:58;;;;;;;23.33;17.65;;;16.80;99.90;;;;;;5133518;27;20549;-58
2022/06/09 03:54:24;;;;;;;25.88;18.73;;;16.80;99.90;;;;;;5133835;27;20031;-58
2022/06/09 03:56:51;;;;;;;29.20;18.90;;;16.80;99.90;;;;;;5133493;27;20023;-57
2022/06/09 03:59:16;;;;;;;;;;;16.80;99.90;;;;;;5134335;27;20359;-58
2022/06/09 04:01:42;;;;;;;26.10;18.25;;;16.90;99.90;;;;;;5133498;27;20368;-57
2022/06/09 04:04:08;;;;;;;27.05;17.23;;;16.90;99.90;;;;;;5133476;27;20532;-58
2022/06/09 04:06:35;;;;;;;26.25;18.60;;;16.90;99.90;;;;;;5133363;27;20019;-58
2022/06/09 04:09:01;;;;;;;24.52;18.95;;;16.90;99.90;;;;;;5133756;27;20089;-57
2022/06/09 04:11:27;;;;;;;29.85;20.02;;;16.90;99.90;;;;;;5133341;27;20065;-58
2022/06/09 04:13:52;;;;;;;25.63;19.38;;;16.90;99.90;;;;;;5133409;27;20057;-58
2022/06/09 04:16:27;;;;;;;23.20;17.73;;;16.90;99.90;;;;;;5133240;27;20030;-57
2022/06/09 04:18:54;;;;;;;26.25;19.75;;;17.00;99.90;;;;;;5133302;27;20019;-58
2022/06/09 04:21:21;;;;;;;26.27;18.73;;;17.00;99.90;;;;;;5133121;27;20080;-58
2022/06/09 04:23:47;;;;;;;24.30;18.23;;;16.90;99.90;;;;;;5145059;27;20039;-58
2022/06/09 04:26:16;;;;;;;27.00;20.02;;;17.00;99.90;;;;;;5153550;27;20101;-56
2022/06/09 04:28:43;;;;;;;23.70;18.42;;;17.00;99.90;;;;;;5153728;27;20549;-55
2022/06/09 04:31:10;;;;;;;25.80;18.77;;;16.90;99.90;;;;;;5153675;27;20019;-56
2022/06/09 04:33:35;;;;;;;27.05;19.90;;;17.00;99.90;;;;;;5153274;27;20043;-56
2022/06/09 04:36:01;;;;;;;25.90;19.20;;;17.00;99.90;;;;;;5153575;27;20386;-56
2022/06/09 04:38:27;;;;;;;24.05;18.60;;;17.00;99.90;;;;;;5153424;27;20037;-56
2022/06/09 04:40:54;;;;;;;22.17;17.20;;;17.10;99.90;;;;;;5153277;27;20030;-57
2022/06/09 04:43:20;;;;;;;29.10;18.55;;;17.00;99.90;;;;;;5153743;27;20093;-56
2022/06/09 04:45:46;;;;;;;23.00;18.20;;;17.00;99.90;;;;;;5134701;27;20042;-56
2022/06/09 04:48:12;;;;;;;24.48;18.48;;;17.10;99.90;;;;;;5153478;27;20019;-56
2022/06/09 04:50:39;;;;;;;26.05;19.90;;;17.10;99.90;;;;;;5153536;27;20537;-56
2022/06/09 04:53:07;;;;;;;27.10;19.00;;;17.10;99.90;;;;;;5153018;27;20520;-56
2022/06/09 04:55:33;;;;;;;25.35;19.63;;;17.20;99.90;;;;;;5135055;27;20065;-56
2022/06/09 04:57:59;;;;;;;27.37;19.00;;;17.10;99.90;;;;;;5153203;27;20481;-56
2022/06/09 05:00:26;;;;;;;25.77;19.52;;;17.10;99.90;;;;;;5153126;27;20019;-56
2022/06/09 05:02:53;;;;;;;24.65;18.50;;;17.10;99.90;;;;;;5152138;27;20069;-56
2022/06/09 05:05:23;;;;;;;25.73;17.98;;;17.10;99.90;;;;;;5153318;27;20038;-56
2022/06/09 05:07:48;;;;;;;25.98;18.90;;;17.10;99.90;;;;;;5152696;27;20026;-56
2022/06/09 05:10:14;;;;;;;26.20;18.13;;;17.20;99.90;;;;;;5153053;27;20081;-56
2022/06/09 05:12:40;;;;;;;25.08;19.25;;;17.20;99.90;;;;;;5153125;27;20030;-56
2022/06/09 05:15:06;;;;;;;22.75;17.80;;;17.20;99.90;;;;;;5152624;27;20542;-56
2022/06/09 05:17:32;;;;;;;24.23;16.75;;;17.40;99.90;;;;;;5153089;27;20083;-56
2022/06/09 05:19:57;;;;;;;21.98;16.02;;;17.40;99.90;;;;;;5152907;27;20109;-57
2022/06/09 05:22:23;;;;;;;17.05;13.68;;;17.40;99.90;;;;;;5153194;27;20085;-56
2022/06/09 05:24:49;;;;;;;18.85;14.68;;;17.40;99.90;;;;;;5132117;27;20426;-56
2022/06/09 05:27:14;;;;;;;27.50;14.98;;;17.50;99.90;;;;;;5131875;27;20034;-56
2022/06/09 05:29:42;;;;;;;19.52;13.95;;;17.50;99.90;;;;;;5132077;27;20023;-57
2022/06/09 05:32:08;;;;;;;;;;;17.60;99.90;;;;;;5132366;27;20027;-57
2022/06/09 05:34:34;;;;;;;13.88;11.27;;;17.60;99.90;;;;;;5131852;27;20350;-57
2022/06/09 05:37:00;;;;;;;14.50;10.80;;;17.60;99.90;;;;;;5131798;27;20027;-57
2022/06/09 05:44:57;;;;;;;12.63;9.90;;;17.70;99.90;;;;;;5131356;27;20046;-57
2022/06/09 05:47:24;;;;;;;13.68;10.80;;;17.80;99.90;;;;;;5131652;27;20084;-57
2022/06/09 05:49:52;;;;;;;15.10;10.65;;;17.90;99.90;;;;;;5131630;27;20030;-57
2022/06/09 05:52:25;;;;;;;13.27;10.27;;;18.00;99.90;;;;;;5131235;27;20104;-57
2022/06/09 05:54:52;;;;;;;13.18;9.30;;;18.00;99.90;;;;;;5130995;27;20062;-57
2022/06/09 05:57:19;;;;;;;12.35;9.60;;;18.10;99.90;;;;;;5131281;27;20447;-57
2022/06/09 05:59:44;;;;;;;12.65;9.20;;;18.20;99.90;;;;;;5131385;27;20088;-57
2022/06/09 06:02:11;;;;;;;14.23;9.63;;;18.20;99.90;;;;;;5131299;27;20031;-56
2022/06/09 06:04:37;;;;;;;11.82;8.90;;;18.20;99.90;;;;;;5131337;27;20034;-57
2022/06/09 06:07:03;;;;;;;14.43;9.07;;;18.20;99.90;;;;;;5131141;27;20019;-57
2022/06/09 06:09:29;;;;;;;15.70;8.10;;;18.30;99.90;;;;;;5130944;27;20034;-57
2022/06/09 06:11:54;;;;;;;10.60;7.53;;;18.30;99.90;;;;;;5131380;27;20752;-57
2022/06/09 06:14:22;;;;;;;12.77;8.07;;;18.40;99.90;;;;;;5131292;27;20035;-57
2022/06/09 06:16:48;;;;;;;16.15;8.23;;;18.50;99.90;;;;;;5131097;27;20066;-57
2022/06/09 06:19:19;;;;;;;11.77;7.72;;;18.60;99.90;;;;;;5130922;27;20055;-57
2022/06/09 06:21:46;;;;;;;11.85;7.22;;;18.70;99.90;;;;;;5131019;27;20027;-57
2022/06/09 06:24:14;;;;;;;9.43;6.88;;;18.70;99.90;;;;;;5145860;27;20058;-57
2022/06/09 06:26:39;;;;;;;;;;;18.80;99.90;;;;;;5152086;27;20023;-56
2022/06/09 06:29:07;;;;;;;12.30;6.57;;;18.90;99.90;;;;;;5132887;27;20289;-57
2022/06/09 06:31:33;;;;;;;10.45;6.85;;;18.90;99.90;;;;;;5151607;27;20072;-57
2022/06/09 06:33:58;;;;;;;12.38;6.38;;;19.00;99.90;;;;;;5151572;27;20035;-57
2022/06/09 06:36:24;;;;;;;10.32;6.13;;;19.00;99.90;;;;;;5151326;27;20389;-57
2022/06/09 06:38:50;;;;;;;8.50;6.28;;;19.10;99.90;;;;;;5151479;27;20113;-57
2022/06/09 06:41:17;;;;;;;10.73;6.45;;;19.20;99.90;;;;;;5151626;27;20034;-57
2022/06/09 06:43:48;;;;;;;8.70;6.47;;;19.20;99.90;;;;;;5151445;27;20034;-57
2022/06/09 06:46:14;;;;;;;8.05;5.88;;;19.30;99.90;;;;;;5151596;27;20039;-57
2022/06/09 06:48:40;;;;;;;10.93;6.43;;;19.50;99.90;;;;;;5151444;27;20031;-57
2022/06/09 06:51:06;;;;;;;8.70;6.65;;;19.50;99.90;;;;;;5151352;27;20260;-57
2022/06/09 06:53:33;;;;;;;10.98;7.15;;;19.50;99.90;;;;;;5151185;27;20065;-57
2022/06/09 06:55:59;;;;;;;10.25;7.57;;;19.50;99.90;;;;;;5152097;27;20521;-57
2022/06/09 06:58:24;;;;;;;10.75;8.43;;;19.50;99.90;;;;;;5155772;27;20023;-57
2022/06/09 07:00:50;;;;;;;12.00;8.63;;;19.50;99.90;;;;;;5155430;27;20424;-57
2022/06/09 07:03:16;;;;;;;12.18;9.88;;;19.50;99.90;;;;;;5155399;27;20019;-57
2022/06/09 07:05:42;;;;;;;13.80;10.88;;;19.60;99.90;;;;;;5155206;27;20023;-57
2022/06/09 07:08:08;;;;;;;17.67;11.32;;;19.60;99.90;;;;;;5155147;27;20090;-57
2022/06/09 07:10:35;;;;;;;16.95;10.98;;;19.60;99.90;;;;;;5155370;27;20148;-57
2022/06/09 07:13:01;;;;;;;16.92;11.95;;;19.80;99.90;;;;;;5154978;27;20033;-57
2022/06/09 07:15:27;;;;;;;20.65;13.95;;;19.90;99.90;;;;;;5155050;27;20474;-57
2022/06/09 07:17:53;;;;;;;24.50;14.65;;;20.00;99.90;;;;;;5155168;27;20091;-57
2022/06/09 07:20:19;;;;;;;20.38;14.73;;;20.00;99.90;;;;;;5155013;27;20474;-57
2022/06/09 07:22:45;;;;;;;22.37;16.27;;;20.10;99.90;;;;;;5152910;27;20773;-57
2022/06/09 07:25:15;;;;;;;22.30;15.85;;;20.10;99.90;;;;;;5134293;27;20019;-57
2022/06/09 07:27:42;;;;;;;19.83;14.63;;;20.20;99.90;;;;;;5134353;27;20046;-57
2022/06/09 07:30:08;;;;;;;21.43;13.83;;;20.20;99.90;;;;;;5134180;27;20023;-58
2022/06/09 07:32:34;;;;;;;22.75;16.88;;;20.20;99.90;;;;;;5134227;27;20398;-58
2022/06/09 07:34:59;;;;;;;25.20;15.70;;;20.30;99.90;;;;;;5134148;27;20031;-58
2022/06/09 07:37:26;;;;;;;22.40;15.57;;;20.20;99.90;;;;;;5134077;27;20535;-58
2022/06/09 07:39:51;;;;;;;24.27;17.05;;;20.40;99.90;;;;;;5134080;27;20554;-58
2022/06/09 07:42:17;;;;;;;27.38;19.50;;;20.60;99.90;;;;;;5133934;27;20126;-61
2022/06/09 07:44:43;;;;;;;27.92;19.20;;;20.70;99.90;;;;;;5134076;27;20019;-63
2022/06/09 07:47:09;;;;;;;27.45;19.73;;;20.80;99.90;;;;;;5133878;27;20106;-61
2022/06/09 07:49:35;;;;;;;32.20;20.05;;;20.90;99.90;;;;;;5133920;27;20102;-62
2022/06/09 07:52:01;;;;;;;25.42;19.70;;;21.00;99.90;;;;;;5115201;27;20031;-61
2022/06/09 07:54:27;;;;;;;28.92;19.40;;;21.20;99.90;;;;;;5115105;27;20691;-62
2022/06/09 07:56:53;;;;;;;35.75;22.58;;;21.40;99.90;;;;;;5133419;27;20023;-61
2022/06/09 07:59:19;;;;;;;30.10;22.58;;;21.40;99.90;;;;;;5133522;27;20114;-61
2022/06/09 08:01:46;;;;;;;31.38;23.77;;;21.40;99.90;;;;;;5133619;27;20106;-62
2022/06/09 08:04:12;;;;;;;28.77;20.73;;;21.40;99.90;;;;;;5133464;27;20028;-62
2022/06/09 08:06:38;;;;;;;27.05;20.38;;;21.60;99.90;;;;;;5133618;27;20027;-62
2022/06/09 08:09:05;;;;;;;29.58;20.08;;;22.00;99.90;;;;;;5132603;27;20055;-61
2022/06/09 08:11:33;;;;;;;28.27;20.52;;;22.10;99.90;;;;;;5133834;27;20675;-62
2022/06/09 08:14:00;;;;;;;28.70;21.90;;;22.10;99.90;;;;;;5133310;27;20036;-62
2022/06/09 08:16:26;;;;;;;;;;;22.10;99.90;;;;;;5133459;27;20109;-62
2022/06/09 08:18:53;;;;;;;30.48;21.40;;;22.10;99.90;;;;;;5143665;27;19990;-61
2022/06/09 08:21:18;;;;;;;28.27;19.67;;;22.20;99.90;;;;;;5151205;27;20019;-60
2022/06/09 08:23:44;;;;;;;28.35;20.48;;;22.20;99.90;;;;;;5155060;27;20007;-60
2022/06/09 08:26:10;;;;;;;27.52;19.48;;;22.00;99.90;;;;;;5153866;27;20391;-61
2022/06/09 08:28:35;;;;;;;28.77;19.98;;;22.00;99.90;;;;;;5151478;27;20372;-61
2022/06/09 08:31:01;;;;;;;28.92;20.00;;;22.10;99.90;;;;;;5151318;27;20039;-61
2022/06/09 08:33:27;;;;;;;26.58;20.10;;;22.20;99.90;;;;;;5153683;27;20062;-61
2022/06/09 08:35:53;;;;;;;27.95;19.40;;;22.50;99.90;;;;;;5153833;27;20019;-61
2022/06/09 08:38:20;;;;;;;23.95;18.13;;;22.60;99.90;;;;;;5150523;27;20024;-61
2022/06/09 08:40:57;;;;;;;23.42;17.00;;;22.60;99.90;;;;;;5153764;27;20054;-61
2022/06/09 08:43:45;;;;;;;24.88;17.60;;;22.80;99.90;;;;;;5141861;27;20156;-61
2022/06/09 08:46:44;;;;;;;26.33;17.23;;;23.20;99.90;;;;;;5143109;27;20019;-61
2022/06/09 08:49:24;;;;;;;22.35;18.77;;;23.30;99.90;;;;;;5142933;27;20015;-61
2022/06/09 08:51:52;;;;;;;23.08;17.30;;;23.30;99.90;;;;;;5142425;27;20428;-61
2022/06/09 08:54:26;;;;;;;21.92;15.93;;;23.30;99.90;;;;;;5140372;27;20444;-61
2022/06/09 08:56:52;;;;;;;22.90;16.13;;;23.40;99.90;;;;;;5141179;27;20019;-50
2022/06/09 08:59:25;;;;;;;22.40;16.92;;;23.40;99.90;;;;;;5153994;27;20041;-61
2022/06/09 09:01:55;;;;;;;24.00;18.48;;;23.50;99.90;;;;;;5153548;27;20466;-62
2022/06/09 09:04:34;;;;;;;22.55;18.25;;;23.70;99.90;;;;;;5148216;27;20023;-59
2022/06/09 09:07:25;;;;;;;22.88;19.02;;;24.00;99.90;;;;;;5153136;27;20034;-60
2022/06/09 09:10:00;;;;;;;23.73;18.75;;;23.80;99.90;;;;;;5124252;27;20567;-62
2022/06/09 09:12:32;;;;;;;20.65;17.40;;;24.10;99.90;;;;;;5140900;27;20031;-62
2022/06/09 09:15:12;;;;;;;21.52;16.75;;;24.10;99.90;;;;;;5141861;27;20546;-58
2022/06/09 09:18:03;;;;;;;24.50;17.80;;;24.00;99.90;;;;;;5143559;27;20045;-56
2022/06/09 09:20:39;;;;;;;19.80;16.05;;;24.00;99.90;;;;;;5147946;27;20385;-60
2022/06/09 09:23:14;;;;;;;18.15;14.63;;;23.80;99.90;;;;;;5154492;27;20105;-58
2022/06/09 09:26:05;;;;;;;19.33;16.10;;;23.80;99.90;;;;;;5141939;27;20037;-60
2022/06/09 09:28:49;;;;;;;18.58;14.82;;;23.80;99.90;;;;;;5142810;27;20076;-58
2022/06/09 09:31:43;;;;;;;21.83;16.13;;;23.60;99.90;;;;;;5142767;27;20780;-57
2022/06/09 09:34:37;;;;;;;21.02;16.23;;;23.40;99.90;;;;;;5148593;27;20110;-57
2022/06/09 09:37:26;;;;;;;17.13;14.40;;;23.00;99.90;;;;;;5122364;27;20080;-57
2022/06/09 09:40:32;;;;;;;19.17;15.43;;;22.90;99.90;;;;;;5140549;27;20039;-57
2022/06/09 09:43:03;;;;;;;22.13;18.00;;;22.90;99.90;;;;;;5124180;27;20109;-56
2022/06/09 09:45:59;;;;;;;21.45;16.60;;;23.10;99.90;;;;;;5142335;27;20031;-58
2022/06/09 09:48:24;;;;;;;19.30;15.40;;;23.10;99.90;;;;;;5136002;27;20102;-57
2022/06/09 09:50:58;;;;;;;19.75;16.10;;;23.10;99.90;;;;;;5150749;27;20441;-57
2022/06/09 09:53:54;;;;;;;17.33;14.07;;;23.40;99.90;;;;;;5141075;27;20045;-58
2022/06/09 09:56:19;;;;;;;18.42;14.50;;;23.70;99.90;;;;;;5139423;27;20117;-63
2022/06/09 09:58:48;;;;;;;20.05;14.95;;;23.90;99.90;;;;;;5140854;27;20102;-62
2022/06/09 10:01:19;;;;;;;18.10;14.13;;;24.10;99.90;;;;;;5140161;27;20034;-60
2022/06/09 10:09:49;;;;;;;16.05;13.90;;;24.40;99.90;;;;;;5140768;27;20087;-61
2022/06/09 10:12:23;;;;;;;15.82;13.55;;;24.80;99.90;;;;;;5140040;27;20060;-61
2022/06/09 10:15:02;;;;;;;16.65;13.80;;;24.80;99.90;;;;;;5139853;27;20030;-60
2022/06/09 10:17:31;;;;;;;17.15;14.05;;;25.00;99.90;;;;;;5141541;27;20026;-60
2022/06/09 10:19:59;;;;;;;15.90;14.00;;;25.40;99.90;;;;;;5148703;27;20374;-56
2022/06/09 10:22:27;;;;;;;19.55;14.40;;;25.50;99.90;;;;;;5132734;27;20016;-56
2022/06/09 10:25:28;;;;;;;18.38;14.82;;;25.50;99.90;;;;;;5142122;27;20106;-56
2022/06/09 10:28:10;;;;;;;18.42;14.00;;;25.30;99.90;;;;;;5130695;27;20049;-62
2022/06/09 10:30:44;;;;;;;21.48;15.45;;;25.30;99.90;;;;;;5130620;27;20038;-59
2022/06/09 10:33:38;;;;;;;17.80;14.07;;;25.40;99.90;;;;;;5148177;27;20029;-59
2022/06/09 10:36:32;;;;;;;16.17;13.82;;;25.50;99.90;;;;;;5140008;27;20023;-59
2022/06/09 10:39:18;;;;;;;21.15;13.10;;;25.60;99.90;;;;;;5141760;27;20019;-60
2022/06/09 10:41:50;;;;;;;14.73;11.40;;;25.60;99.90;;;;;;5140212;27;20030;-60
2022/06/09 10:44:26;;;;;;;17.38;12.18;;;25.70;99.90;;;;;;5139590;27;20023;-61
2022/06/09 10:56:55;;;;;;;15.15;11.95;;;25.90;99.90;;;;;;5141489;27;20062;-58
2022/06/09 10:59:37;;;;;;;18.35;12.23;;;26.20;99.90;;;;;;5128839;27;20028;-60
2022/06/09 11:02:09;;;;;;;16.02;11.95;;;26.10;99.90;;;;;;5140224;27;20023;-60
2022/06/09 11:04:35;;;;;;;12.45;10.90;;;26.20;99.90;;;;;;5139711;27;20680;-60
2022/06/09 11:07:14;;;;;;;14.05;10.48;;;26.00;99.90;;;;;;5141601;27;20019;-60
2022/06/09 11:09:40;;;;;;;23.35;18.05;;;25.90;99.90;;;;;;5141775;27;20026;-60
2022/06/09 11:12:27;;;;;;;13.63;11.65;;;25.90;99.90;;;;;;5140227;27;20741;-59
2022/06/09 11:15:25;;;;;;;14.60;11.68;;;26.00;99.90;;;;;;5150368;27;20088;-60
2022/06/09 11:18:28;;;;;;;16.07;11.20;;;25.90;99.90;;;;;;5139981;27;20027;-60
2022/06/09 11:21:21;;;;;;;19.73;15.35;;;25.90;99.90;;;;;;5118902;27;20470;-60
2022/06/09 11:24:03;;;;;;;15.00;9.95;;;25.90;99.90;;;;;;5141375;27;20027;-60
2022/06/09 11:26:36;;;;;;;19.63;13.68;;;25.80;99.90;;;;;;5139575;27;20489;-60
2022/06/09 11:29:23;;;;;;;13.15;10.43;;;25.70;99.90;;;;;;5139547;27;20054;-60
2022/06/09 11:31:57;;;;;;;16.65;14.05;;;25.70;99.90;;;;;;5139266;27;20048;-60
2022/06/09 11:34:37;;;;;;;14.52;11.68;;;25.60;99.90;;;;;;5139237;27;20109;-60
2022/06/09 11:37:06;;;;;;;16.05;13.10;;;25.90;99.90;;;;;;5141324;27;20029;-58
2022/06/09 11:39:43;;;;;;;14.57;11.68;;;25.80;99.90;;;;;;5139741;27;20019;-59
2022/06/09 11:42:15;;;;;;;15.25;12.20;;;25.80;99.90;;;;;;5146210;27;20019;-58
2022/06/09 11:44:43;;;;;;;11.60;9.27;;;25.80;99.90;;;;;;5152800;27;20091;-59
2022/06/09 11:47:16;;;;;;;15.02;11.15;;;25.50;99.90;;;;;;5143748;27;20022;-60
2022/06/09 11:49:54;;;;;;;13.85;11.93;;;25.50;99.90;;;;;;5153000;27;20030;-60
2022/06/09 11:52:28;;;;;;;12.52;10.65;;;25.50;99.90;;;;;;5146859;27;20653;-61
2022/06/09 11:54:55;;;;;;;14.05;12.27;;;25.70;99.90;;;;;;5150816;27;20031;-61
2022/06/09 11:57:36;;;;;;;18.25;15.82;;;25.90;99.90;;;;;;5152865;27;20097;-61
2022/06/09 12:00:24;;;;;;;18.55;15.10;;;26.50;99.90;;;;;;5144337;27;20398;-55
2022/06/09 12:03:23;;;;;;;14.93;11.38;;;26.90;99.90;;;;;;5142138;27;20032;-64
2022/06/09 12:05:58;;;;;;;13.07;11.40;;;27.50;99.90;;;;;;5151712;27;20085;-64
2022/06/09 12:08:55;;;;;;;15.43;13.00;;;27.50;99.90;;;;;;5152037;27;20023;-55
2022/06/09 12:11:23;;;;;;;12.52;10.82;;;27.60;99.90;;;;;;5144013;27;20023;-57
2022/06/09 12:13:55;;;;;;;12.57;10.50;;;27.40;99.90;;;;;;5142256;27;20031;-55
2022/06/09 12:16:21;;;;;;;13.15;10.35;;;27.40;99.90;;;;;;5142566;27;20011;-55
2022/06/09 12:19:12;;;;;;;15.25;11.57;;;27.30;99.90;;;;;;5155727;27;20037;-55
2022/06/09 12:21:40;;;;;;;12.40;10.88;;;27.00;99.90;;;;;;5142740;27;20106;-55
2022/06/09 12:24:14;;;;;;;15.20;9.85;;;26.80;99.90;;;;;;5150116;27;20073;-56
2022/06/09 12:26:40;;;;;;;11.32;8.27;;;26.40;97.70;;;;;;5152380;27;20027;-55
2022/06/09 12:29:23;;;;;;;11.40;9.93;;;26.60;99.90;;;;;;5155654;27;20058;-59
2022/06/09 12:32:30;;;;;;;11.90;9.07;;;27.00;99.90;;;;;;5142147;27;20106;-56
2022/06/09 12:34:57;;;;;;;11.82;8.38;;;27.00;99.90;;;;;;5099167;28;20044;-60
2022/06/09 12:37:30;;;;;;;9.40;7.22;;;27.00;99.90;;;;;;5143965;27;20072;-60
2022/06/09 12:40:00;;;;;;;12.55;9.35;;;27.10;98.30;;;;;;5142886;27;20031;-60
2022/06/09 12:42:44;;;;;;;13.48;9.60;;;27.30;99.90;;;;;;5141828;27;20094;-61
2022/06/09 12:45:15;;;;;;;11.27;8.55;;;27.40;98.30;;;;;;5141935;27;20089;-61
2022/06/09 12:48:03;;;;;;;15.50;9.75;;;27.20;98.50;;;;;;5142411;27;20030;-60
2022/06/09 12:50:45;;;;;;;12.13;8.80;;;27.70;99.90;;;;;;5141985;27;20053;-60
2022/06/09 12:53:36;;;;;;;11.63;8.40;;;27.70;96.90;;;;;;5141654;27;20046;-60
2022/06/09 12:56:17;;;;;;;18.33;9.65;;;27.00;94.90;;;;;;5145672;27;20440;-60
2022/06/09 12:58:48;;;;;;;12.35;9.52;;;27.70;99.90;;;;;;5148889;27;20027;-60
2022/06/09 13:01:21;;;;;;;11.18;9.25;;;28.00;99.90;;;;;;5142228;27;20011;-59
2022/06/09 13:03:51;;;;;;;14.52;9.73;;;28.10;98.90;;;;;;5141642;27;20473;-60
2022/06/09 13:06:28;;;;;;;13.82;8.68;;;28.00;98.70;;;;;;5142126;27;20026;-62
2022/06/09 13:09:13;;;;;;;13.50;10.07;;;27.80;98.10;;;;;;5141697;27;20015;-58
2022/06/09 13:14:30;;;;;;;16.38;12.48;;;27.80;99.60;;;;;;5143543;27;20386;-62
2022/06/09 13:17:07;;;;;;;17.00;12.15;;;27.40;99.90;;;;;;5143866;27;20027;-60